createdAt,value
2019-01-27T00:00:01.255Z,933.86
2019-01-27T00:01:01.263Z,933.82
2019-01-27T00:02:01.236Z,933.80
2019-01-27T00:03:01.234Z,933.78
2019-01-27T00:04:01.217Z,933.70
2019-01-27T00:05:01.803Z,933.72
2019-01-27T00:06:01.217Z,933.66
2019-01-27T00:07:01.183Z,933.64
2019-01-27T00:08:01.165Z,933.79
2019-01-27T00:09:01.174Z,933.62
2019-01-27T00:10:01.143Z,933.67
2019-01-27T00:11:01.136Z,933.64
2019-01-27T00:12:40.400Z,933.67
2019-01-27T00:13:01.125Z,933.62
2019-01-27T00:14:01.149Z,933.61
2019-01-27T00:15:01.092Z,933.66
2019-01-27T00:16:01.080Z,933.69
2019-01-27T00:17:01.074Z,933.72
2019-01-27T00:18:01.064Z,933.60
2019-01-27T00:19:01.084Z,933.60
2019-01-27T00:20:01.033Z,933.60
2019-01-27T00:21:01.020Z,933.62
2019-01-27T00:22:01.012Z,933.71
2019-01-27T00:23:01.003Z,933.69
2019-01-27T00:24:01.026Z,933.70
2019-01-27T00:25:00.992Z,933.64
2019-01-27T00:26:00.957Z,933.64
2019-01-27T00:28:11.254Z,933.60
2019-01-27T00:29:11.292Z,933.60
2019-01-27T00:30:11.212Z,933.54
2019-01-27T00:31:11.214Z,933.54
2019-01-27T00:32:11.216Z,933.48
2019-01-27T00:33:11.166Z,933.49
2019-01-27T00:34:11.200Z,933.47
2019-01-27T00:35:11.197Z,933.47
2019-01-27T00:36:11.144Z,933.49
2019-01-27T00:37:11.143Z,933.48
2019-01-27T00:38:11.104Z,933.48
2019-01-27T00:39:11.117Z,933.51
2019-01-27T00:40:11.093Z,933.46
2019-01-27T00:41:11.103Z,933.45
2019-01-27T00:43:24.316Z,933.34
2019-01-27T00:44:25.179Z,933.36
2019-01-27T00:45:24.190Z,933.41
2019-01-27T00:46:24.144Z,933.37
2019-01-27T00:47:24.144Z,933.36
2019-01-27T00:48:24.164Z,933.37
2019-01-27T00:49:24.120Z,933.31
2019-01-27T00:50:24.111Z,933.31
2019-01-27T00:51:24.116Z,933.28
2019-01-27T00:52:24.084Z,933.29
2019-01-27T00:53:24.085Z,933.23
2019-01-27T00:54:24.066Z,933.25
2019-01-27T00:55:24.074Z,933.23
2019-01-27T00:56:24.048Z,933.19
2019-01-27T00:57:24.029Z,933.21
2019-01-27T00:58:24.027Z,933.16
2019-01-27T00:59:24.030Z,933.17
2019-01-27T01:00:23.967Z,933.12
2019-01-27T01:01:23.982Z,933.09
2019-01-27T01:02:23.985Z,933.08
2019-01-27T01:03:23.956Z,933.07
2019-01-27T01:04:23.962Z,933.10
2019-01-27T01:05:23.934Z,933.03
2019-01-27T01:06:23.908Z,933.06
2019-01-27T01:07:23.915Z,933.06
2019-01-27T01:08:23.895Z,933.06
2019-01-27T01:09:23.895Z,933.05
2019-01-27T01:10:23.901Z,933.03
2019-01-27T01:11:23.902Z,933.09
2019-01-27T01:12:44.933Z,933.03
2019-01-27T01:13:23.830Z,933.06
2019-01-27T01:14:23.824Z,933.07
2019-01-27T01:15:23.837Z,933.12
2019-01-27T01:16:23.810Z,933.13
2019-01-27T01:17:23.781Z,933.10
2019-01-27T01:18:24.041Z,933.07
2019-01-27T01:19:23.820Z,933.03
2019-01-27T01:20:23.761Z,933.08
2019-01-27T01:21:23.774Z,933.06
2019-01-27T01:22:24.557Z,933.04
2019-01-27T01:23:23.715Z,932.98
2019-01-27T01:24:23.750Z,932.96
2019-01-27T01:25:23.712Z,932.96
2019-01-27T01:26:23.722Z,932.98
2019-01-27T01:27:23.729Z,932.95
2019-01-27T01:28:24.562Z,932.89
2019-01-27T01:29:24.577Z,932.89
2019-01-27T01:30:23.647Z,932.88
2019-01-27T01:31:23.635Z,932.86
2019-01-27T01:32:23.643Z,932.90
2019-01-27T01:33:23.616Z,932.84
2019-01-27T01:34:23.651Z,932.76
2019-01-27T01:35:23.656Z,932.72
2019-01-27T01:36:23.589Z,932.75
2019-01-27T01:37:23.595Z,932.76
2019-01-27T01:38:23.596Z,932.73
2019-01-27T01:39:23.535Z,932.75
2019-01-27T01:40:24.053Z,932.79
2019-01-27T01:41:23.565Z,932.76
2019-01-27T01:43:35.728Z,932.75
2019-01-27T01:44:35.575Z,932.69
2019-01-27T01:45:35.579Z,932.63
2019-01-27T01:46:35.544Z,932.60
2019-01-27T01:47:35.565Z,932.51
2019-01-27T01:48:35.535Z,932.52
2019-01-27T01:49:35.549Z,932.44
2019-01-27T01:50:35.494Z,932.43
2019-01-27T01:51:35.502Z,932.40
2019-01-27T01:52:35.487Z,932.38
2019-01-27T01:53:35.475Z,932.43
2019-01-27T01:54:35.491Z,932.40
2019-01-27T01:55:35.435Z,932.46
2019-01-27T01:56:35.454Z,932.41
2019-01-27T01:58:53.431Z,932.34
2019-01-27T01:59:46.892Z,932.38
2019-01-27T02:00:46.874Z,932.27
2019-01-27T02:01:46.881Z,932.21
2019-01-27T02:02:46.877Z,932.16
2019-01-27T02:03:46.888Z,932.19
2019-01-27T02:04:46.829Z,932.19
2019-01-27T02:05:46.847Z,932.19
2019-01-27T02:06:46.838Z,932.15
2019-01-27T02:07:46.826Z,932.22
2019-01-27T02:08:46.792Z,932.16
2019-01-27T02:09:46.792Z,932.11
2019-01-27T02:10:46.796Z,932.06
2019-01-27T02:11:46.761Z,932.06
2019-01-27T02:12:46.810Z,932.00
2019-01-27T02:13:46.779Z,931.97
2019-01-27T02:14:46.755Z,931.94
2019-01-27T02:15:46.747Z,931.94
2019-01-27T02:16:46.693Z,931.96
2019-01-27T02:17:46.726Z,931.95
2019-01-27T02:18:46.686Z,931.96
2019-01-27T02:19:46.661Z,931.89
2019-01-27T02:20:46.699Z,931.89
2019-01-27T02:21:46.676Z,931.91
2019-01-27T02:22:46.621Z,931.85
2019-01-27T02:23:46.626Z,931.85
2019-01-27T02:24:46.651Z,931.77
2019-01-27T02:25:46.606Z,931.77
2019-01-27T02:26:46.583Z,931.72
2019-01-27T02:27:46.681Z,931.74
2019-01-27T02:28:46.587Z,931.68
2019-01-27T02:29:46.583Z,931.71
2019-01-27T02:30:46.533Z,931.65
2019-01-27T02:31:46.578Z,931.64
2019-01-27T02:32:46.545Z,931.66
2019-01-27T02:33:46.502Z,931.67
2019-01-27T02:34:46.523Z,931.59
2019-01-27T02:35:46.501Z,931.57
2019-01-27T02:36:46.484Z,931.53
2019-01-27T02:37:46.485Z,931.50
2019-01-27T02:38:46.445Z,931.47
2019-01-27T02:39:46.447Z,931.40
2019-01-27T02:40:46.485Z,931.39
2019-01-27T02:41:46.442Z,931.33
2019-01-27T02:42:46.430Z,931.33
2019-01-27T02:43:46.397Z,931.31
2019-01-27T02:44:46.367Z,931.22
2019-01-27T02:45:46.382Z,931.24
2019-01-27T02:46:46.373Z,931.25
2019-01-27T02:47:46.376Z,931.26
2019-01-27T02:48:46.364Z,931.20
2019-01-27T02:49:46.329Z,931.20
2019-01-27T02:50:46.356Z,931.11
2019-01-27T02:51:46.333Z,931.09
2019-01-27T02:52:46.358Z,931.03
2019-01-27T02:53:46.291Z,931.09
2019-01-27T02:54:46.247Z,931.00
2019-01-27T02:55:46.262Z,930.96
2019-01-27T02:56:46.273Z,930.94
2019-01-27T02:57:46.238Z,930.93
2019-01-27T02:58:46.203Z,930.93
2019-01-27T02:59:46.206Z,930.90
2019-01-27T03:00:46.186Z,930.90
2019-01-27T03:01:46.177Z,930.80
2019-01-27T03:02:46.172Z,930.82
2019-01-27T03:03:46.150Z,930.85
2019-01-27T03:04:46.160Z,930.80
2019-01-27T03:05:46.130Z,930.79
2019-01-27T03:06:46.118Z,930.70
2019-01-27T03:07:46.134Z,930.72
2019-01-27T03:08:46.094Z,930.77
2019-01-27T03:09:46.081Z,930.69
2019-01-27T03:10:46.096Z,930.67
2019-01-27T03:11:46.059Z,930.64
2019-01-27T03:12:46.045Z,930.62
2019-01-27T03:13:46.042Z,930.58
2019-01-27T03:14:46.028Z,930.59
2019-01-27T03:15:46.013Z,930.59
2019-01-27T03:16:46.005Z,930.53
2019-01-27T03:17:46.099Z,930.52
2019-01-27T03:18:46.009Z,930.54
2019-01-27T03:19:45.968Z,930.59
2019-01-27T03:20:45.954Z,930.45
2019-01-27T03:21:45.947Z,930.51
2019-01-27T03:22:45.965Z,930.37
2019-01-27T03:23:45.941Z,930.45
2019-01-27T03:24:45.944Z,930.48
2019-01-27T03:25:45.914Z,930.47
2019-01-27T03:26:45.888Z,930.42
2019-01-27T03:27:45.876Z,930.35
2019-01-27T03:28:45.867Z,930.44
2019-01-27T03:29:45.867Z,930.48
2019-01-27T03:30:45.866Z,930.47
2019-01-27T03:31:45.838Z,930.38
2019-01-27T03:32:45.836Z,930.36
2019-01-27T03:33:45.810Z,930.36
2019-01-27T03:34:45.804Z,930.32
2019-01-27T03:35:45.815Z,930.32
2019-01-27T03:36:45.770Z,930.27
2019-01-27T03:37:45.772Z,930.25
2019-01-27T03:38:45.754Z,930.20
2019-01-27T03:39:45.735Z,930.17
2019-01-27T03:40:45.728Z,930.20
2019-01-27T03:41:45.759Z,930.16
2019-01-27T03:42:45.721Z,930.13
2019-01-27T03:43:45.692Z,930.14
2019-01-27T03:44:45.682Z,930.09
2019-01-27T03:45:45.666Z,930.08
2019-01-27T03:46:45.659Z,930.07
2019-01-27T03:47:45.688Z,930.12
2019-01-27T03:48:45.634Z,930.04
2019-01-27T03:49:45.629Z,930.09
2019-01-27T03:50:45.609Z,930.10
2019-01-27T03:51:45.603Z,930.09
2019-01-27T03:52:45.597Z,930.04
2019-01-27T03:53:45.607Z,930.11
2019-01-27T03:54:45.570Z,930.07
2019-01-27T03:55:45.552Z,930.05
2019-01-27T03:56:45.545Z,930.09
2019-01-27T03:58:24.970Z,930.07
2019-01-27T03:58:45.520Z,930.11
2019-01-27T03:59:45.525Z,930.00
2019-01-27T04:00:45.531Z,930.04
2019-01-27T04:01:45.480Z,930.06
2019-01-27T04:02:45.471Z,930.02
2019-01-27T04:03:45.473Z,929.97
2019-01-27T04:04:45.486Z,929.91
2019-01-27T04:05:45.446Z,929.90
2019-01-27T04:06:45.431Z,929.91
2019-01-27T04:07:45.418Z,929.89
2019-01-27T04:08:45.401Z,929.94
2019-01-27T04:09:45.446Z,929.85
2019-01-27T04:10:46.350Z,929.88
2019-01-27T04:11:45.383Z,929.79
2019-01-27T04:12:45.362Z,929.78
2019-01-27T04:13:45.353Z,929.78
2019-01-27T04:14:45.375Z,929.78
2019-01-27T04:15:45.338Z,929.72
2019-01-27T04:16:45.318Z,929.68
2019-01-27T04:17:45.300Z,929.73
2019-01-27T04:18:45.289Z,929.67
2019-01-27T04:19:45.313Z,929.66
2019-01-27T04:20:45.302Z,929.62
2019-01-27T04:21:45.281Z,929.62
2019-01-27T04:22:45.846Z,929.56
2019-01-27T04:23:45.257Z,929.63
2019-01-27T04:24:45.275Z,929.57
2019-01-27T04:25:45.209Z,929.59
2019-01-27T04:26:45.201Z,929.55
2019-01-27T04:27:45.190Z,929.51
2019-01-27T04:28:45.865Z,929.52
2019-01-27T04:29:45.196Z,929.45
2019-01-27T04:30:45.149Z,929.47
2019-01-27T04:31:45.142Z,929.46
2019-01-27T04:32:45.137Z,929.46
2019-01-27T04:33:45.131Z,929.46
2019-01-27T04:34:45.387Z,929.41
2019-01-27T04:35:45.095Z,929.39
2019-01-27T04:36:45.084Z,929.40
2019-01-27T04:37:45.075Z,929.46
2019-01-27T04:38:45.062Z,929.39
2019-01-27T04:39:45.073Z,929.40
2019-01-27T04:40:45.062Z,929.48
2019-01-27T04:41:45.070Z,929.42
2019-01-27T04:42:45.022Z,929.44
2019-01-27T04:43:45.005Z,929.40
2019-01-27T04:44:44.992Z,929.41
2019-01-27T04:45:45.021Z,929.37
2019-01-27T04:46:45.030Z,929.40
2019-01-27T04:47:44.958Z,929.38
2019-01-27T04:48:44.984Z,929.39
2019-01-27T04:49:44.934Z,929.39
2019-01-27T04:50:44.912Z,929.37
2019-01-27T04:51:44.916Z,929.33
2019-01-27T04:52:44.972Z,929.36
2019-01-27T04:53:44.890Z,929.27
2019-01-27T04:54:44.907Z,929.23
2019-01-27T04:55:44.862Z,929.20
2019-01-27T04:56:44.850Z,929.10
2019-01-27T04:57:44.882Z,929.10
2019-01-27T04:58:44.856Z,929.08
2019-01-27T04:59:44.856Z,929.11
2019-01-27T05:00:44.813Z,929.18
2019-01-27T05:01:44.796Z,929.20
2019-01-27T05:02:44.789Z,929.13
2019-01-27T05:03:44.799Z,929.05
2019-01-27T05:04:44.775Z,929.06
2019-01-27T05:05:44.756Z,929.08
2019-01-27T05:06:44.739Z,929.11
2019-01-27T05:07:44.733Z,929.06
2019-01-27T05:08:44.744Z,929.04
2019-01-27T05:09:44.711Z,929.07
2019-01-27T05:10:44.746Z,929.02
2019-01-27T05:11:44.682Z,929.02
2019-01-27T05:13:08.441Z,928.96
2019-01-27T05:13:44.882Z,929.00
2019-01-27T05:14:44.657Z,929.01
2019-01-27T05:15:44.650Z,928.90
2019-01-27T05:16:44.669Z,928.89
2019-01-27T05:17:44.624Z,928.91
2019-01-27T05:18:44.614Z,928.80
2019-01-27T05:19:45.341Z,928.84
2019-01-27T05:20:45.342Z,928.85
2019-01-27T05:21:44.629Z,928.78
2019-01-27T05:22:44.559Z,928.79
2019-01-27T05:23:44.602Z,928.78
2019-01-27T05:24:44.537Z,928.82
2019-01-27T05:25:44.526Z,928.79
2019-01-27T05:26:44.549Z,928.81
2019-01-27T05:27:44.544Z,928.81
2019-01-27T05:28:44.492Z,928.78
2019-01-27T05:29:44.480Z,928.77
2019-01-27T05:30:44.469Z,928.75
2019-01-27T05:31:44.493Z,928.72
2019-01-27T05:32:44.471Z,928.72
2019-01-27T05:33:44.458Z,928.69
2019-01-27T05:34:44.448Z,928.74
2019-01-27T05:35:44.407Z,928.72
2019-01-27T05:36:44.406Z,928.68
2019-01-27T05:37:44.381Z,928.67
2019-01-27T05:38:44.409Z,928.64
2019-01-27T05:39:44.373Z,928.65
2019-01-27T05:40:44.355Z,928.55
2019-01-27T05:41:44.840Z,928.61
2019-01-27T05:42:45.335Z,928.65
2019-01-27T05:43:44.316Z,928.64
2019-01-27T05:44:44.342Z,928.59
2019-01-27T05:45:44.323Z,928.54
2019-01-27T05:46:44.286Z,928.54
2019-01-27T05:47:44.283Z,928.55
2019-01-27T05:48:44.262Z,928.58
2019-01-27T05:49:44.278Z,928.58
2019-01-27T05:50:44.257Z,928.54
2019-01-27T05:51:44.256Z,928.51
2019-01-27T05:52:44.230Z,928.42
2019-01-27T05:53:44.198Z,928.46
2019-01-27T05:54:44.198Z,928.36
2019-01-27T05:55:44.189Z,928.35
2019-01-27T05:56:44.211Z,928.38
2019-01-27T05:58:56.462Z,928.39
2019-01-27T05:59:57.136Z,928.38
2019-01-27T06:00:56.419Z,928.34
2019-01-27T06:01:56.398Z,928.31
2019-01-27T06:02:57.072Z,928.34
2019-01-27T06:03:56.377Z,928.36
2019-01-27T06:04:56.366Z,928.31
2019-01-27T06:05:56.400Z,928.27
2019-01-27T06:06:56.337Z,928.25
2019-01-27T06:07:56.340Z,928.26
2019-01-27T06:08:56.352Z,928.22
2019-01-27T06:09:56.303Z,928.24
2019-01-27T06:10:57.122Z,928.20
2019-01-27T06:11:56.309Z,928.24
2019-01-27T06:12:56.279Z,928.16
2019-01-27T06:13:56.261Z,928.11
2019-01-27T06:14:56.262Z,928.17
2019-01-27T06:15:56.260Z,928.13
2019-01-27T06:16:56.273Z,928.06
2019-01-27T06:17:56.228Z,928.10
2019-01-27T06:18:56.221Z,928.11
2019-01-27T06:19:56.232Z,928.11
2019-01-27T06:20:56.232Z,928.10
2019-01-27T06:21:56.647Z,928.16
2019-01-27T06:22:56.200Z,928.07
2019-01-27T06:24:06.891Z,928.00
2019-01-27T06:24:56.677Z,927.99
2019-01-27T06:25:56.126Z,928.07
2019-01-27T06:26:56.110Z,928.00
2019-01-27T06:27:56.129Z,928.05
2019-01-27T06:28:56.089Z,928.01
2019-01-27T06:29:56.098Z,928.10
2019-01-27T06:30:56.087Z,928.12
2019-01-27T06:31:56.059Z,928.01
2019-01-27T06:32:56.091Z,927.97
2019-01-27T06:33:56.048Z,927.95
2019-01-27T06:34:56.037Z,927.98
2019-01-27T06:35:56.038Z,927.98
2019-01-27T06:36:56.029Z,927.93
2019-01-27T06:37:56.003Z,927.97
2019-01-27T06:38:56.060Z,927.92
2019-01-27T06:39:55.979Z,927.87
2019-01-27T06:40:55.959Z,927.85
2019-01-27T06:41:55.961Z,927.83
2019-01-27T06:45:53.866Z,927.73
2019-01-27T06:46:17.539Z,927.76
2019-01-27T06:47:17.551Z,927.71
2019-01-27T06:48:17.514Z,927.73
2019-01-27T06:49:17.800Z,927.72
2019-01-27T06:50:17.484Z,927.75
2019-01-27T06:51:17.478Z,927.69
2019-01-27T06:52:17.478Z,927.68
2019-01-27T06:53:18.275Z,927.52
2019-01-27T06:54:17.541Z,927.63
2019-01-27T06:55:17.457Z,927.60
2019-01-27T06:56:17.481Z,927.59
2019-01-27T06:57:17.461Z,927.56
2019-01-27T06:58:17.403Z,927.50
2019-01-27T06:59:17.435Z,927.47
2019-01-27T07:00:17.402Z,927.49
2019-01-27T07:01:18.236Z,927.41
2019-01-27T07:02:17.392Z,927.42
2019-01-27T07:03:17.378Z,927.41
2019-01-27T07:04:17.327Z,927.40
2019-01-27T07:05:17.406Z,927.40
2019-01-27T07:06:17.327Z,927.28
2019-01-27T07:07:17.324Z,927.39
2019-01-27T07:08:17.292Z,927.41
2019-01-27T07:09:17.272Z,927.44
2019-01-27T07:10:17.304Z,927.45
2019-01-27T07:11:18.229Z,927.47
2019-01-27T07:12:17.243Z,927.27
2019-01-27T07:13:17.314Z,927.35
2019-01-27T07:14:17.213Z,927.24
2019-01-27T07:15:17.202Z,927.22
2019-01-27T07:16:17.201Z,927.11
2019-01-27T07:17:17.727Z,927.02
2019-01-27T07:18:17.280Z,927.06
2019-01-27T07:19:17.164Z,927.07
2019-01-27T07:20:17.234Z,927.04
2019-01-27T07:21:17.152Z,927.06
2019-01-27T07:22:17.131Z,927.03
2019-01-27T07:23:18.180Z,926.98
2019-01-27T07:24:17.170Z,927.03
2019-01-27T07:25:17.122Z,927.12
2019-01-27T07:26:17.174Z,927.15
2019-01-27T07:27:17.101Z,927.26
2019-01-27T07:28:17.063Z,927.26
2019-01-27T07:29:17.757Z,927.30
2019-01-27T07:30:17.029Z,927.25
2019-01-27T07:31:17.020Z,927.31
2019-01-27T07:32:17.030Z,927.28
2019-01-27T07:33:28.049Z,927.24
2019-01-27T07:34:17.058Z,927.20
2019-01-27T07:35:17.925Z,927.17
2019-01-27T07:36:17.119Z,927.18
2019-01-27T07:37:17.027Z,927.22
2019-01-27T07:38:16.938Z,927.20
2019-01-27T07:39:16.983Z,927.26
2019-01-27T07:40:17.753Z,927.29
2019-01-27T07:41:17.764Z,927.26
2019-01-27T07:42:16.899Z,927.25
2019-01-27T07:44:33.545Z,927.31
2019-01-27T07:45:29.874Z,927.29
2019-01-27T07:46:29.826Z,927.30
2019-01-27T07:47:29.860Z,927.26
2019-01-27T07:48:29.843Z,927.24
2019-01-27T07:49:30.847Z,927.23
2019-01-27T07:50:29.812Z,927.30
2019-01-27T07:51:29.812Z,927.29
2019-01-27T07:52:29.782Z,927.24
2019-01-27T07:53:29.745Z,927.27
2019-01-27T07:54:29.774Z,927.29
2019-01-27T07:55:29.732Z,927.29
2019-01-27T07:56:29.770Z,927.34
2019-01-27T07:57:30.691Z,927.38
2019-01-27T07:58:50.751Z,927.35
2019-01-27T07:59:29.689Z,927.31
2019-01-27T08:00:31.343Z,927.31
2019-01-27T08:01:30.382Z,927.39
2019-01-27T08:02:29.643Z,927.34
2019-01-27T08:03:29.647Z,927.34
2019-01-27T08:04:29.605Z,927.35
2019-01-27T08:05:29.612Z,927.28
2019-01-27T08:06:29.607Z,927.26
2019-01-27T08:07:29.597Z,927.26
2019-01-27T08:08:30.359Z,927.24
2019-01-27T08:09:29.595Z,927.22
2019-01-27T08:10:29.565Z,927.21
2019-01-27T08:11:29.535Z,927.22
2019-01-27T08:12:32.347Z,927.23
2019-01-27T08:13:30.341Z,927.20
2019-01-27T08:14:29.524Z,927.19
2019-01-27T08:15:30.386Z,927.15
2019-01-27T08:16:29.517Z,927.06
2019-01-27T08:17:29.474Z,927.12
2019-01-27T08:18:29.483Z,927.12
2019-01-27T08:19:29.458Z,927.10
2019-01-27T08:20:29.469Z,927.09
2019-01-27T08:21:29.433Z,927.06
2019-01-27T08:22:29.494Z,927.08
2019-01-27T08:23:30.356Z,927.10
2019-01-27T08:24:29.416Z,927.10
2019-01-27T08:25:29.420Z,927.08
2019-01-27T08:26:29.402Z,927.08
2019-01-27T08:27:29.368Z,927.08
2019-01-27T08:28:37.959Z,927.08
2019-01-27T08:29:29.372Z,927.00
2019-01-27T08:30:29.876Z,927.07
2019-01-27T08:31:29.357Z,927.06
2019-01-27T08:32:29.323Z,927.03
2019-01-27T08:33:29.344Z,927.03
2019-01-27T08:34:29.299Z,927.02
2019-01-27T08:35:29.877Z,927.05
2019-01-27T08:36:29.873Z,927.04
2019-01-27T08:37:29.236Z,927.03
2019-01-27T08:38:29.236Z,927.02
2019-01-27T08:39:29.217Z,927.06
2019-01-27T08:40:29.218Z,927.06
2019-01-27T08:41:29.875Z,926.98
2019-01-27T08:42:29.182Z,927.01
2019-01-27T08:43:29.260Z,927.02
2019-01-27T08:44:29.157Z,926.97
2019-01-27T08:45:29.176Z,926.94
2019-01-27T08:46:29.138Z,926.90
2019-01-27T08:47:29.886Z,926.89
2019-01-27T08:48:29.133Z,926.94
2019-01-27T08:49:29.120Z,926.88
2019-01-27T08:50:29.086Z,926.82
2019-01-27T08:51:29.093Z,926.81
2019-01-27T08:52:29.073Z,926.84
2019-01-27T08:53:29.374Z,926.82
2019-01-27T08:54:29.057Z,926.81
2019-01-27T08:55:29.038Z,926.78
2019-01-27T08:56:29.395Z,926.83
2019-01-27T08:57:29.034Z,926.79
2019-01-27T08:58:29.993Z,926.79
2019-01-27T08:59:28.999Z,926.81
2019-01-27T09:00:28.990Z,926.81
2019-01-27T09:01:29.005Z,926.79
2019-01-27T09:02:29.394Z,926.81
2019-01-27T09:03:28.943Z,926.81
2019-01-27T09:04:29.862Z,926.79
2019-01-27T09:05:28.923Z,926.81
2019-01-27T09:06:28.929Z,926.78
2019-01-27T09:07:28.912Z,926.76
2019-01-27T09:08:28.908Z,926.78
2019-01-27T09:09:28.877Z,926.72
2019-01-27T09:10:28.873Z,926.71
2019-01-27T09:11:28.863Z,926.72
2019-01-27T09:12:29.868Z,926.72
2019-01-27T09:13:28.836Z,926.68
2019-01-27T09:14:28.841Z,926.71
2019-01-27T09:15:28.814Z,926.66
2019-01-27T09:16:28.801Z,926.68
2019-01-27T09:17:28.787Z,926.68
2019-01-27T09:18:28.810Z,926.71
2019-01-27T09:19:28.761Z,926.68
2019-01-27T09:20:28.768Z,926.67
2019-01-27T09:21:28.877Z,926.58
2019-01-27T09:22:29.369Z,926.59
2019-01-27T09:23:28.720Z,926.58
2019-01-27T09:24:28.750Z,926.56
2019-01-27T09:25:28.702Z,926.52
2019-01-27T09:26:28.700Z,926.56
2019-01-27T09:27:28.676Z,926.52
2019-01-27T09:28:28.668Z,926.50
2019-01-27T09:29:28.659Z,926.49
2019-01-27T09:30:28.671Z,926.52
2019-01-27T09:31:28.636Z,926.52
2019-01-27T09:32:28.639Z,926.53
2019-01-27T09:33:28.615Z,926.54
2019-01-27T09:34:28.601Z,926.54
2019-01-27T09:35:28.599Z,926.50
2019-01-27T09:36:28.612Z,926.60
2019-01-27T09:37:28.573Z,926.53
2019-01-27T09:38:28.600Z,926.53
2019-01-27T09:39:28.553Z,926.61
2019-01-27T09:40:28.534Z,926.67
2019-01-27T09:41:28.522Z,926.66
2019-01-27T09:42:29.369Z,926.63
2019-01-27T09:43:29.012Z,926.49
2019-01-27T09:44:28.494Z,926.53
2019-01-27T09:45:28.483Z,926.50
2019-01-27T09:46:28.464Z,926.55
2019-01-27T09:47:28.458Z,926.52
2019-01-27T09:48:28.469Z,926.58
2019-01-27T09:49:28.430Z,926.49
2019-01-27T09:50:28.437Z,926.53
2019-01-27T09:51:29.373Z,926.49
2019-01-27T09:52:28.397Z,926.45
2019-01-27T09:53:28.393Z,926.43
2019-01-27T09:54:28.405Z,926.45
2019-01-27T09:55:28.375Z,926.40
2019-01-27T09:56:28.367Z,926.49
2019-01-27T09:57:28.877Z,926.54
2019-01-27T09:58:28.336Z,926.54
2019-01-27T09:59:28.324Z,926.52
2019-01-27T10:00:28.343Z,926.48
2019-01-27T10:01:28.312Z,926.53
2019-01-27T10:02:34.615Z,926.49
2019-01-27T10:03:29.285Z,926.54
2019-01-27T10:04:28.266Z,926.54
2019-01-27T10:05:28.257Z,926.48
2019-01-27T10:06:28.274Z,926.56
2019-01-27T10:07:28.232Z,926.49
2019-01-27T10:08:28.241Z,926.48
2019-01-27T10:09:28.222Z,926.48
2019-01-27T10:10:28.197Z,926.42
2019-01-27T10:11:28.217Z,926.41
2019-01-27T10:12:28.175Z,926.40
2019-01-27T10:13:28.167Z,926.40
2019-01-27T10:14:28.176Z,926.44
2019-01-27T10:15:28.144Z,926.50
2019-01-27T10:16:28.135Z,926.45
2019-01-27T10:17:28.166Z,926.41
2019-01-27T10:18:28.115Z,926.45
2019-01-27T10:19:28.102Z,926.45
2019-01-27T10:20:28.103Z,926.43
2019-01-27T10:21:28.077Z,926.38
2019-01-27T10:22:28.066Z,926.43
2019-01-27T10:23:28.069Z,926.39
2019-01-27T10:24:28.037Z,926.36
2019-01-27T10:25:28.029Z,926.41
2019-01-27T10:26:28.031Z,926.33
2019-01-27T10:27:28.008Z,926.28
2019-01-27T10:28:28.003Z,926.28
2019-01-27T10:29:28.001Z,926.33
2019-01-27T10:30:27.972Z,926.27
2019-01-27T10:31:27.965Z,926.28
2019-01-27T10:32:27.974Z,926.30
2019-01-27T10:33:27.946Z,926.20
2019-01-27T10:34:27.943Z,926.16
2019-01-27T10:35:28.388Z,926.18
2019-01-27T10:36:27.910Z,926.14
2019-01-27T10:37:27.896Z,926.15
2019-01-27T10:38:27.902Z,926.14
2019-01-27T10:39:27.882Z,926.09
2019-01-27T10:40:27.882Z,926.08
2019-01-27T10:41:27.857Z,926.04
2019-01-27T10:42:27.843Z,926.04
2019-01-27T10:43:27.839Z,926.04
2019-01-27T10:44:27.812Z,926.04
2019-01-27T10:45:27.863Z,925.97
2019-01-27T10:46:27.787Z,926.06
2019-01-27T10:47:27.788Z,926.02
2019-01-27T10:48:27.792Z,926.06
2019-01-27T10:49:27.761Z,926.14
2019-01-27T10:50:27.755Z,926.20
2019-01-27T10:51:27.773Z,926.26
2019-01-27T10:52:27.974Z,926.20
2019-01-27T10:53:34.551Z,926.20
2019-01-27T10:54:27.717Z,926.09
2019-01-27T10:55:27.700Z,926.05
2019-01-27T10:56:27.694Z,925.99
2019-01-27T10:57:27.693Z,925.93
2019-01-27T10:58:27.674Z,925.92
2019-01-27T10:59:27.646Z,925.91
2019-01-27T11:00:27.650Z,925.87
2019-01-27T11:01:27.639Z,925.96
2019-01-27T11:02:27.659Z,926.00
2019-01-27T11:03:27.617Z,926.05
2019-01-27T11:04:27.600Z,926.01
2019-01-27T11:05:27.582Z,925.96
2019-01-27T11:06:27.577Z,925.98
2019-01-27T11:07:28.329Z,925.94
2019-01-27T11:08:27.577Z,925.90
2019-01-27T11:09:27.611Z,925.84
2019-01-27T11:10:27.532Z,925.89
2019-01-27T11:11:27.521Z,925.74
2019-01-27T11:12:27.506Z,925.75
2019-01-27T11:13:27.516Z,925.89
2019-01-27T11:14:27.505Z,925.82
2019-01-27T11:15:27.475Z,925.90
2019-01-27T11:16:27.462Z,925.82
2019-01-27T11:17:27.457Z,925.86
2019-01-27T11:18:27.440Z,925.86
2019-01-27T11:19:27.474Z,925.81
2019-01-27T11:20:27.419Z,925.84
2019-01-27T11:21:28.236Z,925.85
2019-01-27T11:22:27.396Z,925.86
2019-01-27T11:23:27.388Z,925.75
2019-01-27T11:24:27.377Z,925.74
2019-01-27T11:25:27.395Z,925.75
2019-01-27T11:26:27.356Z,925.73
2019-01-27T11:27:32.963Z,925.74
2019-01-27T11:28:28.334Z,925.67
2019-01-27T11:29:27.322Z,925.70
2019-01-27T11:30:27.329Z,925.71
2019-01-27T11:31:27.302Z,925.70
2019-01-27T11:32:27.288Z,925.64
2019-01-27T11:33:27.276Z,925.62
2019-01-27T11:34:27.257Z,925.50
2019-01-27T11:35:27.277Z,925.57
2019-01-27T11:36:27.252Z,925.51
2019-01-27T11:37:27.251Z,925.48
2019-01-27T11:38:27.220Z,925.51
2019-01-27T11:39:27.202Z,925.44
2019-01-27T11:40:27.203Z,925.49
2019-01-27T11:41:27.220Z,925.44
2019-01-27T11:42:27.186Z,925.44
2019-01-27T11:43:27.187Z,925.46
2019-01-27T11:44:27.156Z,925.42
2019-01-27T11:45:27.139Z,925.47
2019-01-27T11:46:27.132Z,925.43
2019-01-27T11:47:27.398Z,925.36
2019-01-27T11:48:27.124Z,925.41
2019-01-27T11:49:27.885Z,925.36
2019-01-27T11:50:27.109Z,925.33
2019-01-27T11:51:27.079Z,925.32
2019-01-27T11:52:27.087Z,925.30
2019-01-27T11:53:27.056Z,925.30
2019-01-27T11:54:27.092Z,925.22
2019-01-27T11:55:27.037Z,925.24
2019-01-27T11:56:27.035Z,925.27
2019-01-27T11:57:27.010Z,925.19
2019-01-27T11:58:27.031Z,925.26
2019-01-27T11:59:27.860Z,925.22
2019-01-27T12:00:26.974Z,925.26
2019-01-27T12:01:27.891Z,925.23
2019-01-27T12:02:27.340Z,925.22
2019-01-27T12:03:26.965Z,925.21
2019-01-27T12:04:26.935Z,925.16
2019-01-27T12:05:26.926Z,925.12
2019-01-27T12:06:27.907Z,925.17
2019-01-27T12:07:26.909Z,925.18
2019-01-27T12:08:28.050Z,925.23
2019-01-27T12:09:26.943Z,925.16
2019-01-27T12:10:26.866Z,925.09
2019-01-27T12:11:26.867Z,925.13
2019-01-27T12:12:26.862Z,925.02
2019-01-27T12:13:26.832Z,925.08
2019-01-27T12:14:26.847Z,925.16
2019-01-27T12:15:26.822Z,925.04
2019-01-27T12:16:26.829Z,925.07
2019-01-27T12:17:28.330Z,924.96
2019-01-27T12:18:26.812Z,924.94
2019-01-27T12:19:26.784Z,924.92
2019-01-27T12:20:26.754Z,924.94
2019-01-27T12:21:26.756Z,924.98
2019-01-27T12:22:27.730Z,925.02
2019-01-27T12:23:26.730Z,924.97
2019-01-27T12:24:26.720Z,924.94
2019-01-27T12:25:26.724Z,924.96
2019-01-27T12:26:26.756Z,924.97
2019-01-27T12:27:26.680Z,924.98
2019-01-27T12:28:26.686Z,925.02
2019-01-27T12:29:26.665Z,924.96
2019-01-27T12:30:26.679Z,925.01
2019-01-27T12:31:26.632Z,924.98
2019-01-27T12:32:26.618Z,924.94
2019-01-27T12:33:26.608Z,924.90
2019-01-27T12:34:26.625Z,924.91
2019-01-27T12:35:26.582Z,924.90
2019-01-27T12:36:26.581Z,924.86
2019-01-27T12:37:26.561Z,924.90